Time;durP1;ratioP1;P1;durP2;ratioP2;P2;SDS_P1;SDS_P2;PMS_P1;PMS_P2;Temp;Humidity;BMP_temperature;BMP_pressure;BME280_temperature;BME280_humidity;BME280_pressure;Samples;Min_cycle;Max_cycle;Signal;HPM_P1;HPM_P2
2023/02/15 00:01:29;;;;;;;120.30;52.63;;;;;;;5.16;100.00;103118.50;5005914;28;20187;-69
2023/02/15 00:03:55;;;;;;;112.37;50.13;;;;;;;5.22;100.00;103119.88;5006728;28;20738;-69
2023/02/15 00:06:21;;;;;;;122.23;50.30;;;;;;;5.22;100.00;103121.50;5004966;28;20224;-69
2023/02/15 00:08:47;;;;;;;113.47;50.40;;;;;;;5.22;100.00;103124.06;5004064;28;20890;-69
2023/02/15 00:11:16;;;;;;;119.33;49.00;;;;;;;5.22;100.00;103124.06;5006543;28;20206;-69
2023/02/15 00:13:42;;;;;;;135.27;52.47;;;;;;;5.15;100.00;103119.28;5004438;28;20249;-69
2023/02/15 00:16:10;;;;;;;120.07;50.27;;;;;;;5.18;100.00;103116.97;4989922;28;20208;-69
2023/02/15 00:18:36;;;;;;;166.20;52.20;;;;;;;5.12;100.00;103119.94;5000388;28;20195;-69
2023/02/15 00:21:08;;;;;;;121.63;49.80;;;;;;;5.13;100.00;103111.53;5005998;28;20226;-69
2023/02/15 00:23:34;;;;;;;163.37;51.63;;;;;;;5.03;100.00;103110.69;4968303;28;1087755;-69
2023/02/15 00:26:12;;;;;;;153.93;51.90;;;;;;;5.04;100.00;103107.41;4995299;28;20199;-69
2023/02/15 00:28:40;;;;;;;126.73;49.43;;;;;;;5.06;100.00;103109.28;5008511;28;20215;-68
2023/02/15 00:31:08;;;;;;;131.10;49.63;;;;;;;5.01;100.00;103107.19;5005802;28;20207;-68
2023/02/15 00:33:35;;;;;;;119.87;48.87;;;;;;;5.05;100.00;103109.16;5012374;28;20257;-68
2023/02/15 00:36:02;;;;;;;134.63;49.43;;;;;;;5.04;100.00;103115.00;5004666;28;20718;-69
2023/02/15 00:38:28;;;;;;;131.30;50.43;;;;;;;5.01;100.00;103109.72;5002683;28;20194;-68
2023/02/15 00:40:56;;;;;;;114.77;49.03;;;;;;;5.05;100.00;103102.44;4975291;28;20187;-68
2023/02/15 00:43:22;;;;;;;134.87;51.03;;;;;;;5.02;100.00;103108.94;5005793;28;20199;-68
2023/02/15 00:45:47;;;;;;;184.93;52.83;;;;;;;4.95;100.00;103105.03;4989635;28;20566;-69
2023/02/15 00:48:13;;;;;;;211.23;52.60;;;;;;;4.83;100.00;103100.66;4990699;28;20219;-68
2023/02/15 00:50:38;;;;;;;139.90;49.87;;;;;;;4.94;100.00;103100.72;5006892;28;20194;-68
2023/02/15 00:53:04;;;;;;;159.30;50.37;;;;;;;4.93;100.00;103091.31;5002679;28;20187;-68
2023/02/15 00:55:29;;;;;;;145.47;49.10;;;;;;;4.96;100.00;103094.09;5003483;28;20211;-69
2023/02/15 00:57:55;;;;;;;137.47;50.90;;;;;;;4.94;100.00;103094.75;5009886;28;20292;-68
2023/02/15 01:00:21;;;;;;;144.97;51.13;;;;;;;4.92;100.00;103084.47;4986678;28;20566;-68
2023/02/15 01:02:46;;;;;;;126.20;51.67;;;;;;;4.93;100.00;103088.78;5007507;28;20660;-68
2023/02/15 01:05:13;;;;;;;147.77;53.50;;;;;;;4.84;100.00;103075.38;5001712;28;20196;-68
2023/02/15 01:07:38;;;;;;;167.63;53.70;;;;;;;4.80;100.00;103082.66;4985813;28;20215;-68
2023/02/15 01:10:06;;;;;;;193.43;54.80;;;;;;;4.79;100.00;103078.34;4987523;28;20680;-69
2023/02/15 01:12:32;;;;;;;118.60;50.67;;;;;;;4.87;100.00;103077.25;5004598;28;20196;-69
2023/02/15 01:14:58;;;;;;;118.60;50.40;;;;;;;4.83;100.00;103073.63;5006413;28;20203;-69
2023/02/15 01:17:24;;;;;;;114.80;49.07;;;;;;;4.84;100.00;103070.31;4992028;28;20221;-69
2023/02/15 01:19:51;;;;;;;137.50;53.17;;;;;;;4.85;100.00;103072.09;5004707;28;20551;-69
2023/02/15 01:22:18;;;;;;;141.93;49.50;;;;;;;4.85;100.00;103071.19;4983418;28;20187;-69
2023/02/15 01:24:44;;;;;;;124.70;48.67;;;;;;;4.83;100.00;103063.47;4987471;28;20199;-69
2023/02/15 01:27:10;;;;;;;106.23;45.97;;;;;;;4.86;100.00;103063.72;5007828;28;20231;-69
2023/02/15 01:29:35;;;;;;;124.50;49.13;;;;;;;4.83;100.00;103052.44;5005891;28;20214;-69
2023/02/15 01:32:01;;;;;;;157.73;50.83;;;;;;;4.79;100.00;103058.03;4986983;28;20719;-70
2023/02/15 01:34:29;;;;;;;278.77;52.37;;;;;;;4.75;100.00;103053.50;5007777;28;20553;-69
2023/02/15 01:36:56;;;;;;;194.27;49.53;;;;;;;4.69;100.00;103053.03;5001229;28;20291;-69
2023/02/15 01:39:21;;;;;;;133.70;52.57;;;;;;;4.73;100.00;103052.47;5009105;28;20652;-69
2023/02/15 01:41:47;;;;;;;185.10;51.70;;;;;;;4.69;100.00;103050.50;5006084;28;20652;-69
2023/02/15 01:44:49;;;;;;;162.00;49.87;;;;;;;4.69;100.00;103046.28;4981837;28;20192;-69
2023/02/15 01:47:44;;;;;;;124.03;46.53;;;;;;;4.67;100.00;103046.94;5003217;28;20715;-69
2023/02/15 01:50:18;;;;;;;176.53;49.73;;;;;;;4.66;100.00;103042.63;5007852;28;20203;-69
2023/02/15 01:53:10;;;;;;;125.43;48.03;;;;;;;4.68;100.00;103043.63;4984258;28;20740;-69
2023/02/15 01:55:42;;;;;;;171.07;52.03;;;;;;;4.62;100.00;103048.22;5004592;28;20290;-69
2023/02/15 01:58:07;;;;;;;194.37;51.63;;;;;;;4.59;100.00;103037.81;4990626;28;20591;-68
2023/02/15 02:00:35;;;;;;;116.10;49.27;;;;;;;4.60;100.00;103032.88;5004917;28;20193;-69
2023/02/15 02:03:02;;;;;;;246.53;53.60;;;;;;;4.59;100.00;103037.81;5006468;28;20187;-69
2023/02/15 02:05:29;;;;;;;212.33;53.33;;;;;;;4.54;100.00;103032.41;4991295;28;20191;-69
2023/02/15 02:07:58;;;;;;;151.37;50.10;;;;;;;4.49;100.00;103033.69;4987009;28;20258;-69
2023/02/15 02:10:24;;;;;;;133.03;51.13;;;;;;;4.54;100.00;103029.88;4990944;28;20286;-69
2023/02/15 02:12:54;;;;;;;157.67;49.50;;;;;;;4.49;100.00;103033.69;5007177;28;20186;-69
2023/02/15 02:15:28;;;;;;;161.97;50.83;;;;;;;4.52;100.00;103035.59;5008594;28;20191;-68
2023/02/15 02:18:12;;;;;;;135.67;47.23;;;;;;;4.54;100.00;103034.06;5003889;28;20677;-68
2023/02/15 02:21:22;;;;;;;114.00;47.43;;;;;;;4.51;100.00;103029.63;5028639;23;20234;-67
2023/02/15 02:24:22;;;;;;;115.80;43.03;;;;;;;4.46;100.00;103025.84;4999815;28;20218;-67
2023/02/15 02:27:19;;;;;;;110.17;41.50;;;;;;;4.38;100.00;103018.41;5004761;28;20195;-67
2023/02/15 02:30:12;;;;;;;116.70;42.97;;;;;;;4.34;100.00;103013.84;5012646;28;20218;-68
2023/02/15 02:33:02;;;;;;;97.87;40.90;;;;;;;4.35;100.00;103016.53;5011298;28;21830;-67
2023/02/15 02:35:43;;;;;;;99.60;43.53;;;;;;;4.30;100.00;103009.31;5002700;28;20914;-68
2023/02/15 02:38:37;;;;;;;95.07;40.80;;;;;;;4.27;100.00;103011.59;5010227;28;20203;-67
2023/02/15 02:41:14;;;;;;;115.60;41.20;;;;;;;4.19;100.00;102995.78;5023507;28;20306;-67
2023/02/15 02:44:05;;;;;;;108.00;42.40;;;;;;;4.18;100.00;103010.91;5004069;28;20198;-67
2023/02/15 02:46:50;;;;;;;108.90;41.67;;;;;;;4.16;100.00;103002.25;5025164;28;20305;-67
2023/02/15 02:49:15;;;;;;;126.43;41.97;;;;;;;4.14;100.00;102999.59;5009235;28;20218;-67
2023/02/15 02:51:41;;;;;;;114.43;40.73;;;;;;;4.11;100.00;102996.84;5006049;28;20783;-67
2023/02/15 02:54:09;;;;;;;101.30;40.90;;;;;;;4.10;100.00;102987.44;5025058;28;20241;-67
2023/02/15 02:56:42;;;;;;;127.50;41.77;;;;;;;4.09;100.00;102983.16;5010240;28;20191;-67
2023/02/15 02:59:20;;;;;;;114.40;41.30;;;;;;;4.06;100.00;102988.00;5013793;28;20278;-67
2023/02/15 03:01:55;;;;;;;97.00;40.17;;;;;;;4.04;100.00;102981.00;5013725;28;20226;-68
2023/02/15 03:04:27;;;;;;;128.00;41.53;;;;;;;4.01;100.00;102981.63;5011392;28;20245;-68
2023/02/15 03:06:58;;;;;;;179.90;41.63;;;;;;;3.91;100.00;102984.22;5008209;28;20698;-67
2023/02/15 03:09:43;;;;;;;152.13;43.40;;;;;;;3.82;100.00;102987.69;5009272;28;20358;-67
2023/02/15 03:12:16;;;;;;;123.60;42.17;;;;;;;3.92;100.00;102983.44;5005997;28;20279;-68
2023/02/15 03:14:48;;;;;;;101.80;42.33;;;;;;;3.93;100.00;102986.88;5010858;28;20189;-68
2023/02/15 03:17:19;;;;;;;127.90;42.57;;;;;;;3.87;100.00;102984.72;5010495;28;20203;-67
2023/02/15 03:19:47;;;;;;;141.57;42.43;;;;;;;3.88;100.00;102973.84;5007280;28;20215;-67
2023/02/15 03:22:21;;;;;;;136.60;42.33;;;;;;;3.82;100.00;102970.81;5007264;28;20723;-68
2023/02/15 03:25:04;;;;;;;168.37;44.17;;;;;;;3.69;100.00;102965.50;5013849;28;20195;-67
2023/02/15 03:27:39;;;;;;;136.00;42.97;;;;;;;3.75;100.00;102971.09;5010762;28;20195;-68
2023/02/15 03:30:07;;;;;;;147.23;41.40;;;;;;;3.71;100.00;102960.56;5018033;28;20214;-67
2023/02/15 03:32:37;;;;;;;160.83;42.83;;;;;;;3.54;100.00;102955.81;5014492;28;20191;-67
2023/02/15 03:35:03;;;;;;;117.97;42.23;;;;;;;3.57;100.00;102946.81;5008711;28;20209;-67
2023/02/15 03:37:40;;;;;;;110.23;42.37;;;;;;;3.59;100.00;102940.22;5015361;28;20206;-67
2023/02/15 03:43:30;;;;;;;126.30;41.93;;;;;;;3.51;100.00;102940.38;5011371;28;20690;-68
2023/02/15 03:46:00;;;;;;;148.60;41.97;;;;;;;3.49;100.00;102941.91;5007245;28;20210;-67
2023/02/15 03:48:54;;;;;;;124.53;44.90;;;;;;;3.47;100.00;102935.81;5014998;28;20230;-67
2023/02/15 03:51:33;;;;;;;139.43;42.27;;;;;;;3.44;100.00;102945.69;5027553;28;20203;-67
2023/02/15 03:54:02;;;;;;;138.10;43.60;;;;;;;3.36;100.00;102949.25;5018139;28;20191;-67
2023/02/15 03:56:27;;;;;;;123.60;41.60;;;;;;;3.39;100.00;102949.47;5011859;28;20198;-67
2023/02/15 04:01:58;;;;;;;118.23;42.53;;;;;;;3.32;100.00;102955.69;5018313;28;20583;-67
2023/02/15 04:04:34;;;;;;;157.93;43.03;;;;;;;3.22;100.00;102944.72;5012379;28;20687;-67
2023/02/15 04:07:01;;;;;;;155.53;43.27;;;;;;;3.15;100.00;102950.91;5030303;28;20194;-68
2023/02/15 04:12:24;;;;;;;163.27;43.40;;;;;;;3.17;100.00;102953.56;4985464;28;20554;-68
2023/02/15 04:17:36;;;;;;;148.33;42.03;;;;;;;2.92;100.00;102950.66;5016773;28;20245;-67
2023/02/15 04:25:29;;;;;;;163.37;42.97;;;;;;;3.05;100.00;102938.28;5017946;28;20202;-67
2023/02/15 04:27:55;;;;;;;108.40;40.40;;;;;;;3.03;100.00;102947.34;5008231;28;20668;-67
2023/02/15 04:30:23;;;;;;;128.13;40.67;;;;;;;3.01;100.00;102932.81;5016284;28;20274;-67
2023/02/15 04:32:48;;;;;;;112.40;41.00;;;;;;;2.96;100.00;102927.38;5010581;28;20291;-67
2023/02/15 04:35:15;;;;;;;110.50;41.73;;;;;;;2.95;100.00;102925.59;5007918;28;20415;-67
2023/02/15 04:37:41;;;;;;;112.37;39.73;;;;;;;2.83;100.00;102926.22;5020192;28;20197;-68
2023/02/15 04:40:09;;;;;;;148.70;40.67;;;;;;;2.80;100.00;102929.38;5026571;28;20723;-67
2023/02/15 04:42:35;;;;;;;138.37;40.43;;;;;;;2.81;100.00;102926.09;5010627;28;20293;-67
2023/02/15 04:45:00;;;;;;;119.00;39.27;;;;;;;2.83;100.00;102919.53;5014064;28;20282;-67
2023/02/15 04:47:26;;;;;;;106.30;39.40;;;;;;;2.82;100.00;102919.41;5015420;28;20286;-67
2023/02/15 04:49:51;;;;;;;102.73;37.77;;;;;;;2.81;100.00;102912.56;5014205;28;20246;-67
2023/02/15 04:52:17;;;;;;;153.27;38.67;;;;;;;2.67;100.00;102921.53;5033716;28;20210;-67
2023/02/15 04:54:43;;;;;;;120.20;37.47;;;;;;;2.71;100.00;102921.03;5016654;28;20249;-67
2023/02/15 04:57:09;;;;;;;150.00;39.43;;;;;;;2.72;100.00;102916.88;5008705;28;20677;-67
2023/02/15 04:59:35;;;;;;;131.00;38.57;;;;;;;2.63;100.00;102916.09;5015009;28;20317;-67
2023/02/15 05:02:00;;;;;;;104.57;38.27;;;;;;;2.63;100.00;102919.53;5013913;28;20230;-67
2023/02/15 05:04:25;;;;;;;91.30;36.23;;;;;;;2.64;100.00;102902.69;5009890;28;20240;-67
2023/02/15 05:06:51;;;;;;;147.70;40.27;;;;;;;2.56;100.00;102904.56;5015354;28;20240;-67
2023/02/15 05:09:16;;;;;;;108.20;37.43;;;;;;;2.58;100.00;102898.00;5027355;28;20239;-67
2023/02/15 05:11:42;;;;;;;101.07;37.33;;;;;;;2.64;100.00;102902.69;5011775;28;20227;-67
2023/02/15 05:14:07;;;;;;;102.70;37.33;;;;;;;2.68;100.00;102894.59;5011488;28;20241;-67
2023/02/15 05:16:33;;;;;;;113.33;37.00;;;;;;;2.52;100.00;102894.97;5016159;28;20289;-67
2023/02/15 05:18:58;;;;;;;99.10;38.53;;;;;;;2.44;100.00;102901.00;5009961;28;20191;-67
2023/02/15 05:21:24;;;;;;;145.30;39.87;;;;;;;2.51;100.00;102902.41;5011933;28;20195;-67
2023/02/15 05:23:50;;;;;;;170.63;42.03;;;;;;;2.45;100.00;102897.75;5016758;28;20622;-67
2023/02/15 05:29:06;;;;;;;132.00;37.70;;;;;;;2.50;100.00;102903.19;5010752;28;20273;-67
2023/02/15 05:31:32;;;;;;;144.73;41.07;;;;;;;2.32;100.00;102900.00;5017102;28;20195;-67
2023/02/15 05:33:58;;;;;;;99.30;39.10;;;;;;;2.42;100.00;102904.16;5005842;28;20226;-67
2023/02/15 05:36:23;;;;;;;136.53;39.80;;;;;;;2.44;100.00;102890.91;5012192;28;20298;-68
2023/02/15 05:38:48;;;;;;;171.53;41.57;;;;;;;2.36;100.00;102891.91;5016078;28;20183;-68
2023/02/15 05:41:14;;;;;;;134.70;41.53;;;;;;;2.41;100.00;102879.66;5010588;28;20748;-68
2023/02/15 05:43:39;;;;;;;130.27;39.03;;;;;;;2.41;100.00;102870.44;5010644;28;20190;-67
2023/02/15 05:46:06;;;;;;;159.33;41.57;;;;;;;2.19;100.00;102884.53;5014650;28;20568;-67
2023/02/15 05:48:32;;;;;;;176.80;41.27;;;;;;;2.20;100.00;102885.44;5010163;28;20211;-67
2023/02/15 05:51:04;;;;;;;142.60;40.40;;;;;;;2.22;100.00;102883.91;5001967;28;20766;-67
2023/02/15 05:53:32;;;;;;;158.60;39.27;;;;;;;2.06;100.00;102881.72;5016285;28;20583;-67
2023/02/15 05:56:02;;;;;;;137.33;41.50;;;;;;;2.24;100.00;102880.75;5010567;28;20285;-67
2023/02/15 05:58:30;;;;;;;141.87;39.07;;;;;;;2.16;100.00;102874.16;5006026;28;20194;-67
2023/02/15 06:00:55;;;;;;;162.30;41.27;;;;;;;1.99;100.00;102879.44;5015361;28;20260;-67
2023/02/15 06:03:21;;;;;;;161.33;40.73;;;;;;;2.13;100.00;102889.06;5010139;28;20227;-67
2023/02/15 06:05:47;;;;;;;154.43;41.57;;;;;;;2.13;100.00;102891.59;5005680;28;20187;-68
2023/02/15 06:08:12;;;;;;;175.73;41.83;;;;;;;2.17;100.00;102895.28;5004894;28;20746;-67
2023/02/15 06:10:39;;;;;;;143.37;41.17;;;;;;;2.19;100.00;102888.69;5012690;28;20683;-67
2023/02/15 06:13:05;;;;;;;162.03;39.17;;;;;;;2.04;100.00;102887.38;5003421;28;20202;-67
2023/02/15 06:15:31;;;;;;;117.17;38.77;;;;;;;2.08;100.00;102877.69;5016349;28;20187;-67
2023/02/15 06:17:56;;;;;;;183.10;40.90;;;;;;;2.06;100.00;102886.78;5010591;28;20551;-68
2023/02/15 06:20:22;;;;;;;146.97;42.13;;;;;;;2.12;100.00;102884.75;5004221;28;20706;-67
2023/02/15 06:22:47;;;;;;;148.77;38.73;;;;;;;2.08;100.00;102886.91;5012937;28;20202;-67
2023/02/15 06:25:13;;;;;;;181.67;40.67;;;;;;;1.90;100.00;102890.38;5013145;28;20282;-67
2023/02/15 06:27:41;;;;;;;117.33;38.53;;;;;;;1.97;100.00;102890.16;5006088;28;20213;-67
2023/02/15 06:30:08;;;;;;;157.83;42.50;;;;;;;1.85;100.00;102886.56;5013258;28;20691;-67
2023/02/15 06:32:34;;;;;;;155.70;40.53;;;;;;;1.96;100.00;102889.25;5012794;28;20187;-67
2023/02/15 06:35:00;;;;;;;138.37;38.53;;;;;;;1.89;100.00;102876.84;5004696;28;20253;-67
2023/02/15 06:37:25;;;;;;;176.47;41.77;;;;;;;1.70;100.00;102873.50;5019653;28;20224;-67
2023/02/15 06:39:50;;;;;;;166.13;41.33;;;;;;;1.75;100.00;102872.25;5013860;28;20630;-67
2023/02/15 06:42:18;;;;;;;144.07;41.07;;;;;;;1.81;100.00;102866.84;5013286;28;20191;-67
2023/02/15 06:44:44;;;;;;;138.43;39.77;;;;;;;1.84;100.00;102862.06;4993352;28;20246;-67
2023/02/15 06:47:10;;;;;;;174.43;42.60;;;;;;;1.79;100.00;102858.28;5011670;28;20652;-67
2023/02/15 06:49:36;;;;;;;124.17;40.43;;;;;;;1.80;100.00;102871.03;5010515;28;20228;-67
2023/02/15 06:52:01;;;;;;;157.10;42.57;;;;;;;1.56;100.00;102876.44;5010790;28;20245;-67
2023/02/15 06:54:27;;;;;;;148.70;41.23;;;;;;;1.73;100.00;102870.34;5012038;28;20295;-67
2023/02/15 06:56:52;;;;;;;141.57;40.30;;;;;;;1.68;100.00;102875.00;5007721;28;20214;-67
2023/02/15 06:59:17;;;;;;;157.50;42.43;;;;;;;1.66;100.00;102878.16;5010948;28;20210;-67
2023/02/15 07:01:43;;;;;;;124.40;41.43;;;;;;;1.75;100.00;102872.25;5019224;28;20273;-67
2023/02/15 07:04:09;;;;;;;186.37;47.07;;;;;;;1.77;100.00;102875.81;5025447;28;20203;-67
2023/02/15 07:06:35;;;;;;;169.97;45.77;;;;;;;1.81;100.00;102880.38;5011413;28;20195;-67
2023/02/15 07:09:00;;;;;;;154.63;41.33;;;;;;;1.80;100.00;102880.25;5021941;28;20328;-67
2023/02/15 07:14:10;;;;;;;212.67;43.67;;;;;;;1.67;100.00;102872.34;5010566;28;20284;-67
2023/02/15 07:16:35;;;;;;;172.93;44.07;;;;;;;1.80;100.00;102877.72;5019053;28;20652;-67
2023/02/15 07:19:01;;;;;;;127.57;39.70;;;;;;;1.85;100.00;102872.31;5011846;28;20238;-67
2023/02/15 07:21:27;;;;;;;114.13;40.13;;;;;;;1.91;100.00;102874.47;5006794;28;20246;-67
2023/02/15 07:23:56;;;;;;;166.77;40.50;;;;;;;1.81;100.00;102880.38;5018253;28;20201;-67
2023/02/15 07:26:21;;;;;;;150.33;42.13;;;;;;;1.87;100.00;102869.88;5010462;28;20204;-67
2023/02/15 07:28:46;;;;;;;161.27;42.70;;;;;;;1.91;100.00;102859.31;5010514;28;20536;-67
2023/02/15 07:31:12;;;;;;;151.27;39.63;;;;;;;1.83;100.00;102855.25;5020485;28;20218;-67
2023/02/15 07:33:37;;;;;;;154.73;40.40;;;;;;;1.90;100.00;102868.53;5014707;28;20225;-67
2023/02/15 07:36:04;;;;;;;148.53;42.47;;;;;;;1.91;100.00;102856.78;5005019;28;20226;-67
2023/02/15 07:38:32;;;;;;;131.13;39.70;;;;;;;1.95;100.00;102853.78;5029268;28;20187;-67
2023/02/15 07:40:59;;;;;;;121.00;38.87;;;;;;;2.02;100.00;102853.56;5010836;28;20215;-68
2023/02/15 07:43:25;;;;;;;136.23;39.50;;;;;;;1.99;100.00;102854.19;5005496;28;20204;-68
2023/02/15 07:45:50;;;;;;;148.47;39.43;;;;;;;2.00;100.00;102848.38;5016452;28;20194;-67
2023/02/15 07:48:16;;;;;;;140.57;39.50;;;;;;;2.07;100.00;102850.63;5008929;28;20210;-67
2023/02/15 07:50:41;;;;;;;124.33;37.80;;;;;;;2.03;100.00;102848.63;5007919;28;20709;-67
2023/02/15 07:53:07;;;;;;;163.10;39.90;;;;;;;2.10;100.00;102842.44;5016618;28;20988;-67
2023/02/15 07:55:32;;;;;;;167.87;41.80;;;;;;;2.04;100.00;102841.94;5014503;28;20363;-68
2023/02/15 07:57:57;;;;;;;159.07;38.90;;;;;;;1.98;100.00;102838.88;5013319;28;20198;-68
2023/02/15 08:00:24;;;;;;;140.93;40.47;;;;;;;1.90;100.00;102844.91;5020799;28;20218;-67
2023/02/15 08:05:35;;;;;;;162.77;40.60;;;;;;;2.03;100.00;102841.06;5015859;28;20714;-67
2023/02/15 08:08:01;;;;;;;137.00;39.70;;;;;;;1.98;100.00;102839.75;5008795;28;20231;-68
2023/02/15 08:11:25;;;;;;;142.67;39.00;;;;;;;2.08;100.00;102841.44;5014424;28;20269;-68
2023/02/15 08:13:12;;;;;;;109.87;39.37;;;;;;;2.14;100.00;102840.31;5010404;28;20192;-68
2023/02/15 08:15:37;;;;;;;180.70;39.90;;;;;;;2.07;100.00;102830.44;5023306;28;20221;-69
2023/02/15 08:18:03;;;;;;;173.80;42.47;;;;;;;2.13;100.00;102837.66;5010204;28;20183;-69
2023/02/15 08:20:28;;;;;;;103.17;37.90;;;;;;;2.26;100.00;102831.22;5017753;28;20257;-68
2023/02/15 08:22:53;;;;;;;114.47;38.33;;;;;;;2.33;100.00;102830.09;5010225;28;20648;-68
2023/02/15 08:25:19;;;;;;;105.40;36.60;;;;;;;2.37;100.00;102830.50;5016410;28;20202;-68
2023/02/15 08:27:44;;;;;;;146.70;40.67;;;;;;;2.25;100.00;102821.00;5008133;28;20880;-67
2023/02/15 08:30:10;;;;;;;124.33;38.50;;;;;;;2.38;100.00;102814.56;4990553;28;20748;-65
2023/02/15 08:32:36;;;;;;;147.30;38.50;;;;;;;2.46;100.00;102812.69;5006607;28;20240;-65
2023/02/15 08:35:02;;;;;;;110.13;39.00;;;;;;;2.59;100.00;102811.31;5006487;28;20194;-67
2023/02/15 08:37:27;;;;;;;99.50;37.87;;;;;;;2.57;100.00;102815.34;5008087;28;20202;-66
2023/02/15 08:39:53;;;;;;;97.93;36.50;;;;;;;2.60;100.00;102817.22;5008423;28;20569;-67
2023/02/15 08:42:20;;;;;;;110.23;35.87;;;;;;;2.51;100.00;102813.94;5004183;28;20281;-67
2023/02/15 08:44:46;;;;;;;95.63;35.57;;;;;;;2.55;100.00;102814.34;5008996;28;20191;-66
2023/02/15 08:47:11;;;;;;;91.93;35.90;;;;;;;2.48;100.00;102814.56;5006080;28;20199;-67
2023/02/15 08:49:37;;;;;;;127.70;38.40;;;;;;;2.48;100.00;102812.03;5009408;28;20222;-67
2023/02/15 08:52:02;;;;;;;126.40;38.97;;;;;;;2.46;100.00;102802.56;5005225;28;20237;-67
2023/02/15 08:54:28;;;;;;;127.67;38.27;;;;;;;2.49;100.00;102800.31;5007885;28;20199;-67
2023/02/15 08:56:53;;;;;;;91.67;35.87;;;;;;;2.57;100.00;102804.34;5008851;28;20721;-68
2023/02/15 08:59:21;;;;;;;121.50;36.87;;;;;;;2.52;100.00;102805.63;5009475;28;20217;-66
2023/02/15 09:01:49;;;;;;;153.90;37.73;;;;;;;2.49;100.00;102808.75;5008688;28;20195;-66
2023/02/15 09:04:15;;;;;;;101.67;35.77;;;;;;;2.58;100.00;102803.59;5007147;28;20329;-67
2023/02/15 09:06:42;;;;;;;88.30;35.63;;;;;;;2.57;100.00;102790.06;5005825;28;20218;-67
2023/02/15 09:09:08;;;;;;;109.03;36.90;;;;;;;2.67;100.00;102796.75;5007280;28;20237;-67
2023/02/15 09:11:37;;;;;;;107.57;37.20;;;;;;;2.62;100.00;102795.50;5005155;28;20660;-67
2023/02/15 09:14:05;;;;;;;152.53;37.70;;;;;;;2.58;100.00;102796.00;5011896;28;20195;-67
2023/02/15 09:16:33;;;;;;;113.33;38.33;;;;;;;2.60;100.00;102795.38;5005430;28;20237;-67
2023/02/15 09:19:01;;;;;;;100.57;37.47;;;;;;;2.54;100.00;102793.97;5007111;28;20195;-67
2023/02/15 09:21:27;;;;;;;104.20;36.23;;;;;;;2.63;100.00;102788.06;5005655;28;20556;-67
2023/02/15 09:23:57;;;;;;;87.20;36.57;;;;;;;2.68;100.00;102788.41;5003574;28;20342;-67
2023/02/15 09:26:24;;;;;;;123.00;37.47;;;;;;;2.80;100.00;102786.91;5007379;28;20203;-67
2023/02/15 09:28:55;;;;;;;106.60;36.07;;;;;;;2.87;100.00;102787.50;5006336;28;20210;-67
2023/02/15 09:31:22;;;;;;;93.40;36.87;;;;;;;2.92;100.00;102783.69;4989037;28;20247;-67
2023/02/15 09:33:49;;;;;;;113.30;35.63;;;;;;;2.86;100.00;102778.16;5003020;28;20273;-67
2023/02/15 09:36:26;;;;;;;147.90;38.43;;;;;;;2.86;100.00;102780.69;4999207;28;20692;-67
2023/02/15 09:39:14;;;;;;;86.07;34.83;;;;;;;2.94;100.00;102769.50;5004355;28;20188;-67
2023/02/15 09:41:48;;;;;;;93.60;33.80;;;;;;;2.91;100.00;102776.88;5000180;28;20632;-67
2023/02/15 09:44:32;;;;;;;80.00;33.20;;;;;;;3.08;100.00;102778.22;5005847;28;20671;-67
2023/02/15 09:47:27;;;;;;;69.60;32.50;;;;;;;3.08;100.00;102783.28;5004938;28;20195;-68
2023/02/15 09:50:02;;;;;;;70.33;32.37;;;;;;;3.16;100.00;102790.72;5004936;28;20215;-68
2023/02/15 09:52:27;;;;;;;65.10;32.80;;;;;;;3.20;100.00;102791.84;5000362;28;20261;-67
2023/02/15 09:55:05;;;;;;;66.43;31.83;;;;;;;3.23;100.00;102784.50;5005828;28;20760;-67
2023/02/15 09:57:36;;;;;;;92.80;31.80;;;;;;;3.14;100.00;102778.72;5001874;28;20211;-67
2023/02/15 10:00:12;;;;;;;68.43;32.30;;;;;;;3.32;100.00;102777.63;5008889;28;20209;-67
2023/02/15 10:03:05;;;;;;;63.67;30.93;;;;;;;3.41;100.00;102765.72;5009405;28;20221;-67
2023/02/15 10:05:49;;;;;;;68.47;31.97;;;;;;;3.46;100.00;102770.38;4993937;28;20207;-67
2023/02/15 10:08:42;;;;;;;96.40;30.90;;;;;;;3.35;100.00;102770.31;5000059;28;20211;-68
2023/02/15 10:14:18;;;;;;;68.33;29.60;;;;;;;3.47;100.00;102772.13;4994049;28;20626;-67
2023/02/15 10:16:53;;;;;;;66.83;29.43;;;;;;;3.29;100.00;102782.44;5009133;28;20277;-67
2023/02/15 10:19:29;;;;;;;56.13;29.00;;;;;;;3.37;100.00;102778.88;5005998;28;20225;-68
2023/02/15 10:22:22;;;;;;;52.27;29.40;;;;;;;3.54;100.00;102781.97;5001543;28;20195;-67
2023/02/15 10:25:21;;;;;;;65.47;29.77;;;;;;;3.45;100.00;102785.44;5003612;28;20536;-68
2023/02/15 10:27:48;;;;;;;66.50;30.63;;;;;;;3.56;100.00;102775.38;5003006;28;20214;-67
2023/02/15 10:30:30;;;;;;;58.10;28.53;;;;;;;3.62;100.00;102778.38;5005551;28;20219;-67
2023/02/15 10:32:56;;;;;;;59.87;28.63;;;;;;;3.62;100.00;102770.78;5014001;28;20294;-67
2023/02/15 10:35:28;;;;;;;56.77;29.80;;;;;;;3.74;100.00;102774.28;5011073;28;20715;-67
2023/02/15 10:38:29;;;;;;;60.33;27.90;;;;;;;3.78;100.00;102768.66;5005176;28;20204;-67
2023/02/15 10:41:19;;;;;;;51.47;27.97;;;;;;;3.80;100.00;102776.38;4999219;28;20230;-67
2023/02/15 10:44:27;;;;;;;59.03;30.47;;;;;;;3.85;100.00;102764.97;5008728;28;20294;-67
2023/02/15 10:47:13;;;;;;;49.97;28.17;;;;;;;3.89;100.00;102759.38;5007635;28;20190;-67
2023/02/15 10:49:47;;;;;;;51.90;27.67;;;;;;;3.87;100.00;102756.72;5000408;28;20226;-67
2023/02/15 10:52:34;;;;;;;48.17;28.27;;;;;;;4.03;100.00;102751.16;5004831;28;20198;-67
2023/02/15 10:55:10;;;;;;;62.37;28.07;;;;;;;3.63;100.00;102759.03;5009571;28;20560;-67
2023/02/15 10:57:58;;;;;;;46.00;27.63;;;;;;;3.92;100.00;102757.06;5008716;28;20229;-67
2023/02/15 11:00:42;;;;;;;54.63;28.27;;;;;;;3.92;100.00;102757.06;5002474;28;20211;-67
2023/02/15 11:03:43;;;;;;;55.60;28.47;;;;;;;3.89;100.00;102755.19;5005540;28;20719;-66
2023/02/15 11:06:13;;;;;;;51.27;31.23;;;;;;;4.03;100.00;102749.53;5004672;28;20253;-67
2023/02/15 11:09:09;;;;;;;51.07;30.57;;;;;;;4.16;100.00;102742.09;5012484;28;20571;-67
2023/02/15 11:13:49;;;;;;;49.30;27.87;;;;;;;4.20;100.00;102748.25;4991180;27;20594;-67
2023/02/15 11:16:33;;;;;;;47.00;28.60;;;;;;;4.16;100.00;102744.63;5010309;28;20258;-67
2023/02/15 11:19:03;;;;;;;45.93;28.00;;;;;;;4.30;100.00;102743.09;4999382;28;20695;-67
2023/02/15 11:21:40;;;;;;;46.57;28.13;;;;;;;4.27;100.00;102733.63;5005731;28;20678;-67
2023/02/15 11:24:20;;;;;;;49.93;27.50;;;;;;;4.36;100.00;102733.41;5004218;28;20346;-67
2023/02/15 11:26:53;;;;;;;44.47;27.10;;;;;;;4.33;100.00;102735.72;4995435;28;20211;-67
2023/02/15 11:29:27;;;;;;;41.87;25.43;;;;;;;4.45;100.00;102732.44;5002740;28;20207;-67
2023/02/15 11:31:56;;;;;;;48.50;27.10;;;;;;;4.49;100.00;102720.88;4997320;28;20337;-67
2023/02/15 11:34:44;;;;;;;40.73;26.80;;;;;;;4.47;100.00;102728.34;5000717;28;20202;-67
2023/02/15 11:37:18;;;;;;;42.90;25.33;;;;;;;4.50;100.00;102715.91;4998955;28;20191;-67
2023/02/15 11:39:44;;;;;;;40.70;24.97;;;;;;;4.57;100.00;102710.53;5002672;28;20211;-67
2023/02/15 11:42:14;;;;;;;40.87;25.23;;;;;;;4.65;100.00;102711.09;4997123;28;20275;-67
2023/02/15 11:44:47;;;;;;;40.80;26.27;;;;;;;4.66;100.00;102707.78;5000372;28;20597;-67
2023/02/15 11:47:13;;;;;;;41.50;25.07;;;;;;;4.66;100.00;102706.13;5000369;28;20262;-67
2023/02/15 11:49:39;;;;;;;41.77;26.37;;;;;;;4.72;100.00;102701.50;5003309;28;20281;-67
2023/02/15 11:52:11;;;;;;;39.50;25.60;;;;;;;4.83;100.00;102690.44;5001200;28;20214;-67